sensor_id;sensor_type;location;lat;lon;timestamp;temperature;humidity
21176;DHT22;10746;50.178;8.186;2022-08-02T00:01:12;17.10;99.90
21176;DHT22;10746;50.178;8.186;2022-08-02T00:03:39;17.20;99.90
21176;DHT22;10746;50.178;8.186;2022-08-02T00:06:05;17.20;99.90
21176;DHT22;10746;50.178;8.186;2022-08-02T00:08:33;17.30;99.90
21176;DHT22;10746;50.178;8.186;2022-08-02T00:11:00;17.30;99.90
21176;DHT22;10746;50.178;8.186;2022-08-02T00:13:27;17.30;99.90
21176;DHT22;10746;50.178;8.186;2022-08-02T00:15:54;17.30;99.90
21176;DHT22;10746;50.178;8.186;2022-08-02T00:18:20;17.20;99.90
21176;DHT22;10746;50.178;8.186;2022-08-02T00:20:47;17.00;99.90
21176;DHT22;10746;50.178;8.186;2022-08-02T00:23:14;17.10;99.90
21176;DHT22;10746;50.178;8.186;2022-08-02T00:25:42;17.00;99.90
21176;DHT22;10746;50.178;8.186;2022-08-02T00:28:09;17.10;99.90
21176;DHT22;10746;50.178;8.186;2022-08-02T00:30:36;17.10;99.90
21176;DHT22;10746;50.178;8.186;2022-08-02T00:33:03;17.00;99.90
21176;DHT22;10746;50.178;8.186;2022-08-02T00:35:30;17.10;99.90
21176;DHT22;10746;50.178;8.186;2022-08-02T00:37:57;17.00;99.90
21176;DHT22;10746;50.178;8.186;2022-08-02T00:40:23;17.00;99.90
21176;DHT22;10746;50.178;8.186;2022-08-02T00:43:01;17.00;99.90
21176;DHT22;10746;50.178;8.186;2022-08-02T00:45:31;17.10;99.90
21176;DHT22;10746;50.178;8.186;2022-08-02T00:47:58;17.00;99.90
21176;DHT22;10746;50.178;8.186;2022-08-02T00:50:25;17.10;99.90
21176;DHT22;10746;50.178;8.186;2022-08-02T00:52:51;17.10;99.90
21176;DHT22;10746;50.178;8.186;2022-08-02T00:55:18;17.00;99.90
21176;DHT22;10746;50.178;8.186;2022-08-02T00:57:45;16.90;99.90
21176;DHT22;10746;50.178;8.186;2022-08-02T01:00:14;16.70;99.90
21176;DHT22;10746;50.178;8.186;2022-08-02T01:02:41;16.60;99.90
21176;DHT22;10746;50.178;8.186;2022-08-02T01:05:09;16.60;99.90
21176;DHT22;10746;50.178;8.186;2022-08-02T01:07:36;16.50;99.90
21176;DHT22;10746;50.178;8.186;2022-08-02T01:10:03;16.50;99.90
21176;DHT22;10746;50.178;8.186;2022-08-02T01:12:30;16.40;99.90
21176;DHT22;10746;50.178;8.186;2022-08-02T01:15:00;16.30;99.90
21176;DHT22;10746;50.178;8.186;2022-08-02T01:17:37;16.10;99.90
21176;DHT22;10746;50.178;8.186;2022-08-02T01:20:12;16.10;99.90
21176;DHT22;10746;50.178;8.186;2022-08-02T01:22:51;16.00;99.90
21176;DHT22;10746;50.178;8.186;2022-08-02T01:25:44;16.00;99.90
21176;DHT22;10746;50.178;8.186;2022-08-02T01:28:27;15.80;99.90
21176;DHT22;10746;50.178;8.186;2022-08-02T01:30:58;15.90;99.90
21176;DHT22;10746;50.178;8.186;2022-08-02T01:33:31;15.80;99.90
21176;DHT22;10746;50.178;8.186;2022-08-02T01:36:02;15.80;99.90
21176;DHT22;10746;50.178;8.186;2022-08-02T01:38:32;15.80;99.90
21176;DHT22;10746;50.178;8.186;2022-08-02T01:41:01;15.80;99.90
21176;DHT22;10746;50.178;8.186;2022-08-02T01:43:30;15.80;99.90
21176;DHT22;10746;50.178;8.186;2022-08-02T01:45:59;15.80;99.90
21176;DHT22;10746;50.178;8.186;2022-08-02T01:48:27;15.80;99.90
21176;DHT22;10746;50.178;8.186;2022-08-02T01:50:56;15.70;99.90
21176;DHT22;10746;50.178;8.186;2022-08-02T01:53:25;15.70;99.90
21176;DHT22;10746;50.178;8.186;2022-08-02T01:55:53;15.70;99.90
21176;DHT22;10746;50.178;8.186;2022-08-02T01:58:23;15.80;99.90
21176;DHT22;10746;50.178;8.186;2022-08-02T02:00:56;15.70;99.90
21176;DHT22;10746;50.178;8.186;2022-08-02T02:03:24;15.70;99.90
21176;DHT22;10746;50.178;8.186;2022-08-02T02:05:55;15.70;99.90
21176;DHT22;10746;50.178;8.186;2022-08-02T02:08:25;15.70;99.90
21176;DHT22;10746;50.178;8.186;2022-08-02T02:10:54;15.60;99.90
21176;DHT22;10746;50.178;8.186;2022-08-02T02:13:21;15.60;99.90
21176;DHT22;10746;50.178;8.186;2022-08-02T02:15:50;15.70;99.90
21176;DHT22;10746;50.178;8.186;2022-08-02T02:18:22;15.60;99.90
21176;DHT22;10746;50.178;8.186;2022-08-02T02:20:49;15.40;99.90
21176;DHT22;10746;50.178;8.186;2022-08-02T02:23:16;15.40;99.90
21176;DHT22;10746;50.178;8.186;2022-08-02T02:25:43;15.40;99.90
21176;DHT22;10746;50.178;8.186;2022-08-02T02:28:12;15.40;99.90
21176;DHT22;10746;50.178;8.186;2022-08-02T02:30:47;15.40;99.90
21176;DHT22;10746;50.178;8.186;2022-08-02T02:33:17;15.20;99.90
21176;DHT22;10746;50.178;8.186;2022-08-02T02:35:46;15.10;99.90
21176;DHT22;10746;50.178;8.186;2022-08-02T02:38:17;15.20;99.90
21176;DHT22;10746;50.178;8.186;2022-08-02T02:40:45;15.30;99.90
21176;DHT22;10746;50.178;8.186;2022-08-02T02:43:13;15.20;99.90
21176;DHT22;10746;50.178;8.186;2022-08-02T02:45:40;15.30;99.90
21176;DHT22;10746;50.178;8.186;2022-08-02T02:48:08;15.20;99.90
21176;DHT22;10746;50.178;8.186;2022-08-02T02:50:36;15.20;99.90
21176;DHT22;10746;50.178;8.186;2022-08-02T02:53:05;15.20;99.90
21176;DHT22;10746;50.178;8.186;2022-08-02T02:55:32;15.20;99.90
21176;DHT22;10746;50.178;8.186;2022-08-02T02:57:59;15.20;99.90
21176;DHT22;10746;50.178;8.186;2022-08-02T03:00:28;15.10;99.90
21176;DHT22;10746;50.178;8.186;2022-08-02T03:03:14;15.10;99.90
21176;DHT22;10746;50.178;8.186;2022-08-02T03:05:42;15.10;99.90
21176;DHT22;10746;50.178;8.186;2022-08-02T03:08:10;15.10;99.90
21176;DHT22;10746;50.178;8.186;2022-08-02T03:10:38;15.00;99.90
21176;DHT22;10746;50.178;8.186;2022-08-02T03:13:05;15.00;99.90
21176;DHT22;10746;50.178;8.186;2022-08-02T03:15:32;15.00;99.90
21176;DHT22;10746;50.178;8.186;2022-08-02T03:18:00;15.00;99.90
21176;DHT22;10746;50.178;8.186;2022-08-02T03:20:26;15.00;99.90
21176;DHT22;10746;50.178;8.186;2022-08-02T03:22:53;14.90;99.90
21176;DHT22;10746;50.178;8.186;2022-08-02T03:25:21;14.90;99.90
21176;DHT22;10746;50.178;8.186;2022-08-02T03:27:48;14.90;99.90
21176;DHT22;10746;50.178;8.186;2022-08-02T03:30:14;14.90;99.90
21176;DHT22;10746;50.178;8.186;2022-08-02T03:32:44;14.90;99.90
21176;DHT22;10746;50.178;8.186;2022-08-02T03:35:13;14.80;99.90
21176;DHT22;10746;50.178;8.186;2022-08-02T03:37:40;14.70;99.90
21176;DHT22;10746;50.178;8.186;2022-08-02T03:40:09;14.60;99.90
21176;DHT22;10746;50.178;8.186;2022-08-02T03:42:38;14.70;99.90
21176;DHT22;10746;50.178;8.186;2022-08-02T03:45:08;14.70;99.90
21176;DHT22;10746;50.178;8.186;2022-08-02T03:47:37;14.70;99.90
21176;DHT22;10746;50.178;8.186;2022-08-02T03:50:05;14.70;99.90
21176;DHT22;10746;50.178;8.186;2022-08-02T03:52:33;14.60;99.90
21176;DHT22;10746;50.178;8.186;2022-08-02T03:54:59;14.50;99.90
21176;DHT22;10746;50.178;8.186;2022-08-02T03:57:26;14.40;99.90
21176;DHT22;10746;50.178;8.186;2022-08-02T03:59:54;14.30;99.90
21176;DHT22;10746;50.178;8.186;2022-08-02T04:02:21;14.30;99.90
21176;DHT22;10746;50.178;8.186;2022-08-02T04:04:48;14.20;99.90
21176;DHT22;10746;50.178;8.186;2022-08-02T04:07:14;14.10;99.90
21176;DHT22;10746;50.178;8.186;2022-08-02T04:09:41;14.10;99.90
21176;DHT22;10746;50.178;8.186;2022-08-02T04:12:08;13.90;99.90
21176;DHT22;10746;50.178;8.186;2022-08-02T04:14:35;13.90;99.90
21176;DHT22;10746;50.178;8.186;2022-08-02T04:17:05;13.90;99.90
21176;DHT22;10746;50.178;8.186;2022-08-02T04:19:44;14.00;99.90
21176;DHT22;10746;50.178;8.186;2022-08-02T04:22:16;14.00;99.90
21176;DHT22;10746;50.178;8.186;2022-08-02T04:24:48;14.10;99.90
21176;DHT22;10746;50.178;8.186;2022-08-02T04:27:16;14.10;99.90
21176;DHT22;10746;50.178;8.186;2022-08-02T04:29:45;14.10;99.90
21176;DHT22;10746;50.178;8.186;2022-08-02T04:32:13;14.20;99.90
21176;DHT22;10746;50.178;8.186;2022-08-02T04:34:40;14.20;99.90
21176;DHT22;10746;50.178;8.186;2022-08-02T04:37:07;14.20;99.90
21176;DHT22;10746;50.178;8.186;2022-08-02T04:39:34;14.20;99.90
21176;DHT22;10746;50.178;8.186;2022-08-02T04:42:00;14.40;99.90
21176;DHT22;10746;50.178;8.186;2022-08-02T04:44:27;14.30;99.90
21176;DHT22;10746;50.178;8.186;2022-08-02T04:46:54;14.70;99.90
21176;DHT22;10746;50.178;8.186;2022-08-02T04:49:22;14.80;99.90
21176;DHT22;10746;50.178;8.186;2022-08-02T04:51:49;15.00;99.90
21176;DHT22;10746;50.178;8.186;2022-08-02T04:54:15;15.20;99.90
21176;DHT22;10746;50.178;8.186;2022-08-02T04:56:42;15.30;99.90
21176;DHT22;10746;50.178;8.186;2022-08-02T04:59:09;15.30;99.90
21176;DHT22;10746;50.178;8.186;2022-08-02T05:01:37;15.30;99.90
21176;DHT22;10746;50.178;8.186;2022-08-02T05:04:06;15.40;99.90
21176;DHT22;10746;50.178;8.186;2022-08-02T05:06:34;15.50;99.90
21176;DHT22;10746;50.178;8.186;2022-08-02T05:09:01;15.50;99.90
21176;DHT22;10746;50.178;8.186;2022-08-02T05:11:28;15.60;99.90
21176;DHT22;10746;50.178;8.186;2022-08-02T05:13:54;15.70;99.90
21176;DHT22;10746;50.178;8.186;2022-08-02T05:16:21;15.60;99.90
21176;DHT22;10746;50.178;8.186;2022-08-02T05:18:48;15.60;99.90
21176;DHT22;10746;50.178;8.186;2022-08-02T05:21:15;15.60;99.90
21176;DHT22;10746;50.178;8.186;2022-08-02T05:23:43;15.50;99.90
21176;DHT22;10746;50.178;8.186;2022-08-02T05:26:10;15.50;99.90
21176;DHT22;10746;50.178;8.186;2022-08-02T05:28:36;15.40;99.90
21176;DHT22;10746;50.178;8.186;2022-08-02T05:31:03;15.50;99.90
21176;DHT22;10746;50.178;8.186;2022-08-02T05:33:30;15.40;99.90
21176;DHT22;10746;50.178;8.186;2022-08-02T05:35:56;15.50;99.90
21176;DHT22;10746;50.178;8.186;2022-08-02T05:38:23;15.60;99.90
21176;DHT22;10746;50.178;8.186;2022-08-02T05:40:52;15.60;99.90
21176;DHT22;10746;50.178;8.186;2022-08-02T05:43:19;15.60;99.90
21176;DHT22;10746;50.178;8.186;2022-08-02T05:45:45;15.80;99.90
21176;DHT22;10746;50.178;8.186;2022-08-02T05:48:12;16.00;99.90
21176;DHT22;10746;50.178;8.186;2022-08-02T05:50:44;15.90;99.90
21176;DHT22;10746;50.178;8.186;2022-08-02T05:53:18;15.90;99.90
21176;DHT22;10746;50.178;8.186;2022-08-02T05:55:56;16.20;99.90
21176;DHT22;10746;50.178;8.186;2022-08-02T05:58:29;16.30;99.90
21176;DHT22;10746;50.178;8.186;2022-08-02T06:01:02;16.50;99.90
21176;DHT22;10746;50.178;8.186;2022-08-02T06:03:31;16.60;99.90
21176;DHT22;10746;50.178;8.186;2022-08-02T06:06:05;16.60;99.90
21176;DHT22;10746;50.178;8.186;2022-08-02T06:08:37;16.40;99.90
21176;DHT22;10746;50.178;8.186;2022-08-02T06:11:06;16.50;99.90
21176;DHT22;10746;50.178;8.186;2022-08-02T06:13:35;16.80;99.90
21176;DHT22;10746;50.178;8.186;2022-08-02T06:16:02;17.10;99.90
21176;DHT22;10746;50.178;8.186;2022-08-02T06:18:30;17.50;99.90
21176;DHT22;10746;50.178;8.186;2022-08-02T06:21:01;17.50;99.90
21176;DHT22;10746;50.178;8.186;2022-08-02T06:23:28;17.70;99.90
21176;DHT22;10746;50.178;8.186;2022-08-02T06:25:56;18.00;99.90
21176;DHT22;10746;50.178;8.186;2022-08-02T06:28:24;18.30;99.90
21176;DHT22;10746;50.178;8.186;2022-08-02T06:30:52;18.80;99.90
21176;DHT22;10746;50.178;8.186;2022-08-02T06:33:19;19.20;99.90
21176;DHT22;10746;50.178;8.186;2022-08-02T06:35:51;19.70;99.90
21176;DHT22;10746;50.178;8.186;2022-08-02T06:38:24;20.00;99.90
21176;DHT22;10746;50.178;8.186;2022-08-02T06:40:55;20.20;99.90
21176;DHT22;10746;50.178;8.186;2022-08-02T06:43:31;20.50;99.90
21176;DHT22;10746;50.178;8.186;2022-08-02T06:46:00;20.80;99.90
21176;DHT22;10746;50.178;8.186;2022-08-02T06:48:29;20.90;99.90
21176;DHT22;10746;50.178;8.186;2022-08-02T06:50:56;20.70;99.90
21176;DHT22;10746;50.178;8.186;2022-08-02T06:53:22;20.50;99.90
21176;DHT22;10746;50.178;8.186;2022-08-02T06:55:49;20.80;99.90
21176;DHT22;10746;50.178;8.186;2022-08-02T06:58:16;20.80;99.90
21176;DHT22;10746;50.178;8.186;2022-08-02T07:00:44;20.80;99.90
21176;DHT22;10746;50.178;8.186;2022-08-02T07:03:11;21.50;99.90
21176;DHT22;10746;50.178;8.186;2022-08-02T07:05:37;21.70;99.90
21176;DHT22;10746;50.178;8.186;2022-08-02T07:08:04;21.80;99.90
21176;DHT22;10746;50.178;8.186;2022-08-02T07:10:31;21.90;99.90
21176;DHT22;10746;50.178;8.186;2022-08-02T07:12:57;22.10;99.90
21176;DHT22;10746;50.178;8.186;2022-08-02T07:15:24;22.50;99.90
21176;DHT22;10746;50.178;8.186;2022-08-02T07:17:52;22.60;99.90
21176;DHT22;10746;50.178;8.186;2022-08-02T07:20:19;22.80;99.90
21176;DHT22;10746;50.178;8.186;2022-08-02T07:22:45;23.20;99.90
21176;DHT22;10746;50.178;8.186;2022-08-02T07:25:12;22.90;99.90
21176;DHT22;10746;50.178;8.186;2022-08-02T07:27:39;22.90;99.90
21176;DHT22;10746;50.178;8.186;2022-08-02T07:30:06;23.20;99.90
21176;DHT22;10746;50.178;8.186;2022-08-02T07:32:33;23.40;99.90
21176;DHT22;10746;50.178;8.186;2022-08-02T07:35:02;23.50;99.90
21176;DHT22;10746;50.178;8.186;2022-08-02T07:37:30;23.80;99.90
21176;DHT22;10746;50.178;8.186;2022-08-02T07:39:57;24.00;99.90
21176;DHT22;10746;50.178;8.186;2022-08-02T07:42:24;24.30;99.90
21176;DHT22;10746;50.178;8.186;2022-08-02T07:44:51;24.30;99.90
21176;DHT22;10746;50.178;8.186;2022-08-02T07:47:17;24.00;99.90
21176;DHT22;10746;50.178;8.186;2022-08-02T07:49:44;24.10;99.90
21176;DHT22;10746;50.178;8.186;2022-08-02T07:52:12;24.20;99.90
21176;DHT22;10746;50.178;8.186;2022-08-02T07:54:39;24.50;99.90
21176;DHT22;10746;50.178;8.186;2022-08-02T07:57:05;24.80;99.90
21176;DHT22;10746;50.178;8.186;2022-08-02T07:59:32;24.80;99.90
21176;DHT22;10746;50.178;8.186;2022-08-02T08:01:59;24.70;99.90
21176;DHT22;10746;50.178;8.186;2022-08-02T08:04:25;24.80;99.90
21176;DHT22;10746;50.178;8.186;2022-08-02T08:06:52;24.90;99.90
21176;DHT22;10746;50.178;8.186;2022-08-02T08:09:21;24.40;99.90
21176;DHT22;10746;50.178;8.186;2022-08-02T08:11:47;24.70;99.90
21176;DHT22;10746;50.178;8.186;2022-08-02T08:14:14;25.00;99.90
21176;DHT22;10746;50.178;8.186;2022-08-02T08:16:41;25.10;99.90
21176;DHT22;10746;50.178;8.186;2022-08-02T08:19:08;25.30;99.90
21176;DHT22;10746;50.178;8.186;2022-08-02T08:21:34;25.20;99.90
21176;DHT22;10746;50.178;8.186;2022-08-02T08:24:01;25.30;99.90
21176;DHT22;10746;50.178;8.186;2022-08-02T08:26:30;25.10;99.90
21176;DHT22;10746;50.178;8.186;2022-08-02T08:28:57;25.30;99.90
21176;DHT22;10746;50.178;8.186;2022-08-02T08:31:23;25.10;99.90
21176;DHT22;10746;50.178;8.186;2022-08-02T08:33:50;25.10;99.90
21176;DHT22;10746;50.178;8.186;2022-08-02T08:36:16;25.20;99.90
21176;DHT22;10746;50.178;8.186;2022-08-02T08:38:43;25.20;99.90
21176;DHT22;10746;50.178;8.186;2022-08-02T08:41:10;24.80;99.90
21176;DHT22;10746;50.178;8.186;2022-08-02T08:43:38;24.60;99.90
21176;DHT22;10746;50.178;8.186;2022-08-02T08:46:05;24.80;99.90
21176;DHT22;10746;50.178;8.186;2022-08-02T08:48:36;25.00;99.90
21176;DHT22;10746;50.178;8.186;2022-08-02T08:51:10;25.00;99.90
21176;DHT22;10746;50.178;8.186;2022-08-02T08:53:42;25.10;99.90
21176;DHT22;10746;50.178;8.186;2022-08-02T08:56:11;25.10;99.90
21176;DHT22;10746;50.178;8.186;2022-08-02T08:58:39;25.30;99.90
21176;DHT22;10746;50.178;8.186;2022-08-02T09:01:06;24.80;99.90
21176;DHT22;10746;50.178;8.186;2022-08-02T09:03:32;24.50;99.90
21176;DHT22;10746;50.178;8.186;2022-08-02T09:05:59;24.60;99.90
21176;DHT22;10746;50.178;8.186;2022-08-02T09:08:26;24.50;99.90
21176;DHT22;10746;50.178;8.186;2022-08-02T09:10:53;24.80;99.90
21176;DHT22;10746;50.178;8.186;2022-08-02T09:13:21;25.10;99.90
21176;DHT22;10746;50.178;8.186;2022-08-02T09:15:54;25.20;99.90
21176;DHT22;10746;50.178;8.186;2022-08-02T09:18:28;24.70;99.90
21176;DHT22;10746;50.178;8.186;2022-08-02T09:20:59;24.70;99.90
21176;DHT22;10746;50.178;8.186;2022-08-02T09:23:33;25.00;99.90
21176;DHT22;10746;50.178;8.186;2022-08-02T09:26:01;25.30;99.90
21176;DHT22;10746;50.178;8.186;2022-08-02T09:28:30;25.40;99.90
21176;DHT22;10746;50.178;8.186;2022-08-02T09:31:02;25.50;99.90
21176;DHT22;10746;50.178;8.186;2022-08-02T09:33:30;25.70;99.90
21176;DHT22;10746;50.178;8.186;2022-08-02T09:36:01;25.80;99.90
21176;DHT22;10746;50.178;8.186;2022-08-02T09:38:28;25.80;99.90
21176;DHT22;10746;50.178;8.186;2022-08-02T09:40:55;25.90;99.90
21176;DHT22;10746;50.178;8.186;2022-08-02T09:43:36;25.80;99.90
21176;DHT22;10746;50.178;8.186;2022-08-02T09:46:14;26.10;99.90
21176;DHT22;10746;50.178;8.186;2022-08-02T09:48:52;26.10;99.90
21176;DHT22;10746;50.178;8.186;2022-08-02T09:51:21;25.60;99.90
21176;DHT22;10746;50.178;8.186;2022-08-02T09:53:49;25.50;99.90
21176;DHT22;10746;50.178;8.186;2022-08-02T09:56:17;25.70;99.90
21176;DHT22;10746;50.178;8.186;2022-08-02T09:58:45;25.70;99.90
21176;DHT22;10746;50.178;8.186;2022-08-02T10:01:13;25.30;99.90
21176;DHT22;10746;50.178;8.186;2022-08-02T10:03:53;25.30;99.90
21176;DHT22;10746;50.178;8.186;2022-08-02T10:06:21;25.30;99.90
21176;DHT22;10746;50.178;8.186;2022-08-02T10:08:48;25.30;99.90
21176;DHT22;10746;50.178;8.186;2022-08-02T10:11:15;25.60;99.90
21176;DHT22;10746;50.178;8.186;2022-08-02T10:13:42;25.90;99.90
21176;DHT22;10746;50.178;8.186;2022-08-02T10:16:10;26.30;99.90
21176;DHT22;10746;50.178;8.186;2022-08-02T10:18:38;26.30;99.90
21176;DHT22;10746;50.178;8.186;2022-08-02T10:21:06;26.20;99.90
21176;DHT22;10746;50.178;8.186;2022-08-02T10:23:38;26.50;99.90
21176;DHT22;10746;50.178;8.186;2022-08-02T10:26:06;26.30;99.90
21176;DHT22;10746;50.178;8.186;2022-08-02T10:28:33;26.40;99.90
21176;DHT22;10746;50.178;8.186;2022-08-02T10:31:02;25.80;99.90
21176;DHT22;10746;50.178;8.186;2022-08-02T10:33:32;25.90;99.90
21176;DHT22;10746;50.178;8.186;2022-08-02T10:36:03;25.90;99.90
21176;DHT22;10746;50.178;8.186;2022-08-02T10:38:31;26.40;99.90
21176;DHT22;10746;50.178;8.186;2022-08-02T10:40:58;26.40;99.90
21176;DHT22;10746;50.178;8.186;2022-08-02T10:43:42;26.10;99.90
21176;DHT22;10746;50.178;8.186;2022-08-02T10:46:29;26.30;99.90
21176;DHT22;10746;50.178;8.186;2022-08-02T10:49:06;26.50;99.90
21176;DHT22;10746;50.178;8.186;2022-08-02T10:51:55;26.30;99.90
21176;DHT22;10746;50.178;8.186;2022-08-02T10:54:23;26.80;99.90
21176;DHT22;10746;50.178;8.186;2022-08-02T10:56:51;27.30;99.90
21176;DHT22;10746;50.178;8.186;2022-08-02T10:59:26;27.30;99.90
21176;DHT22;10746;50.178;8.186;2022-08-02T11:01:53;27.50;99.90
21176;DHT22;10746;50.178;8.186;2022-08-02T11:04:28;27.50;99.90
21176;DHT22;10746;50.178;8.186;2022-08-02T11:07:10;27.70;99.90
21176;DHT22;10746;50.178;8.186;2022-08-02T11:09:40;27.20;99.90
21176;DHT22;10746;50.178;8.186;2022-08-02T11:12:08;27.60;99.90
21176;DHT22;10746;50.178;8.186;2022-08-02T11:14:36;27.80;99.90
21176;DHT22;10746;50.178;8.186;2022-08-02T11:17:11;27.80;99.90
21176;DHT22;10746;50.178;8.186;2022-08-02T11:20:15;27.00;99.90
21176;DHT22;10746;50.178;8.186;2022-08-02T11:22:45;27.00;99.90
21176;DHT22;10746;50.178;8.186;2022-08-02T11:25:31;26.60;99.90
21176;DHT22;10746;50.178;8.186;2022-08-02T11:28:00;27.00;99.90
21176;DHT22;10746;50.178;8.186;2022-08-02T11:30:33;27.00;99.90
21176;DHT22;10746;50.178;8.186;2022-08-02T11:33:00;26.90;99.90
21176;DHT22;10746;50.178;8.186;2022-08-02T11:35:31;27.40;99.90
21176;DHT22;10746;50.178;8.186;2022-08-02T11:38:12;27.40;99.90
21176;DHT22;10746;50.178;8.186;2022-08-02T11:40:38;26.70;99.90
21176;DHT22;10746;50.178;8.186;2022-08-02T11:43:15;26.80;99.90
21176;DHT22;10746;50.178;8.186;2022-08-02T11:45:42;26.70;99.90
21176;DHT22;10746;50.178;8.186;2022-08-02T11:48:09;26.60;99.90
21176;DHT22;10746;50.178;8.186;2022-08-02T11:50:35;26.60;99.90
21176;DHT22;10746;50.178;8.186;2022-08-02T11:53:12;26.30;99.90
21176;DHT22;10746;50.178;8.186;2022-08-02T11:55:38;26.00;99.90
21176;DHT22;10746;50.178;8.186;2022-08-02T11:58:06;26.50;99.90
21176;DHT22;10746;50.178;8.186;2022-08-02T12:00:36;26.40;99.90
21176;DHT22;10746;50.178;8.186;2022-08-02T12:03:03;26.90;99.90
21176;DHT22;10746;50.178;8.186;2022-08-02T12:05:31;27.30;99.90
21176;DHT22;10746;50.178;8.186;2022-08-02T12:07:58;27.70;99.90
21176;DHT22;10746;50.178;8.186;2022-08-02T12:10:26;27.80;99.90
21176;DHT22;10746;50.178;8.186;2022-08-02T12:12:54;27.80;99.90
21176;DHT22;10746;50.178;8.186;2022-08-02T12:15:29;27.70;99.90
21176;DHT22;10746;50.178;8.186;2022-08-02T12:17:56;28.00;99.90
21176;DHT22;10746;50.178;8.186;2022-08-02T12:20:40;28.30;99.90
21176;DHT22;10746;50.178;8.186;2022-08-02T12:23:07;28.50;99.90
21176;DHT22;10746;50.178;8.186;2022-08-02T12:25:36;28.50;99.90
21176;DHT22;10746;50.178;8.186;2022-08-02T12:28:13;28.30;99.90
21176;DHT22;10746;50.178;8.186;2022-08-02T12:30:49;28.30;99.90
21176;DHT22;10746;50.178;8.186;2022-08-02T12:33:16;28.50;99.90
21176;DHT22;10746;50.178;8.186;2022-08-02T12:35:42;28.80;99.90
21176;DHT22;10746;50.178;8.186;2022-08-02T12:38:10;28.90;99.90
21176;DHT22;10746;50.178;8.186;2022-08-02T12:40:39;29.10;99.90
21176;DHT22;10746;50.178;8.186;2022-08-02T12:43:07;29.00;99.90
21176;DHT22;10746;50.178;8.186;2022-08-02T12:45:45;29.30;99.90
21176;DHT22;10746;50.178;8.186;2022-08-02T12:48:14;29.80;99.90
21176;DHT22;10746;50.178;8.186;2022-08-02T12:50:42;30.00;99.90
21176;DHT22;10746;50.178;8.186;2022-08-02T12:53:10;30.00;99.90
21176;DHT22;10746;50.178;8.186;2022-08-02T12:55:49;30.70;99.90
21176;DHT22;10746;50.178;8.186;2022-08-02T12:58:16;30.60;99.90
21176;DHT22;10746;50.178;8.186;2022-08-02T13:00:50;30.90;99.90
21176;DHT22;10746;50.178;8.186;2022-08-02T13:03:17;30.90;99.90
21176;DHT22;10746;50.178;8.186;2022-08-02T13:05:44;31.10;99.90
21176;DHT22;10746;50.178;8.186;2022-08-02T13:08:12;31.70;99.90
21176;DHT22;10746;50.178;8.186;2022-08-02T13:10:39;31.20;99.90
21176;DHT22;10746;50.178;8.186;2022-08-02T13:13:07;31.80;99.90
21176;DHT22;10746;50.178;8.186;2022-08-02T13:15:34;32.00;99.90
21176;DHT22;10746;50.178;8.186;2022-08-02T13:18:01;31.70;99.90
21176;DHT22;10746;50.178;8.186;2022-08-02T13:20:29;31.40;99.90
21176;DHT22;10746;50.178;8.186;2022-08-02T13:22:56;31.00;99.90
21176;DHT22;10746;50.178;8.186;2022-08-02T13:25:22;30.70;99.90
21176;DHT22;10746;50.178;8.186;2022-08-02T13:27:49;30.90;99.90
21176;DHT22;10746;50.178;8.186;2022-08-02T13:30:19;31.00;99.90
21176;DHT22;10746;50.178;8.186;2022-08-02T13:32:46;31.10;99.90
21176;DHT22;10746;50.178;8.186;2022-08-02T13:35:13;31.20;99.90
21176;DHT22;10746;50.178;8.186;2022-08-02T13:37:40;31.30;99.90
21176;DHT22;10746;50.178;8.186;2022-08-02T13:40:08;31.60;99.90
21176;DHT22;10746;50.178;8.186;2022-08-02T13:42:35;32.00;99.90
21176;DHT22;10746;50.178;8.186;2022-08-02T13:45:02;31.50;99.90
21176;DHT22;10746;50.178;8.186;2022-08-02T13:47:30;31.30;99.50
21176;DHT22;10746;50.178;8.186;2022-08-02T13:49:57;31.40;99.70
21176;DHT22;10746;50.178;8.186;2022-08-02T13:52:23;31.70;99.90
21176;DHT22;10746;50.178;8.186;2022-08-02T13:54:50;31.40;99.90
21176;DHT22;10746;50.178;8.186;2022-08-02T13:57:17;31.00;99.90
21176;DHT22;10746;50.178;8.186;2022-08-02T13:59:44;31.70;99.90
21176;DHT22;10746;50.178;8.186;2022-08-02T14:02:10;31.90;99.90
21176;DHT22;10746;50.178;8.186;2022-08-02T14:04:38;31.80;99.70
21176;DHT22;10746;50.178;8.186;2022-08-02T14:07:05;32.10;99.90
21176;DHT22;10746;50.178;8.186;2022-08-02T14:09:32;32.50;98.30
21176;DHT22;10746;50.178;8.186;2022-08-02T14:12:00;32.50;98.30
21176;DHT22;10746;50.178;8.186;2022-08-02T14:14:27;32.50;99.20
21176;DHT22;10746;50.178;8.186;2022-08-02T14:16:54;31.90;99.80
21176;DHT22;10746;50.178;8.186;2022-08-02T14:19:20;31.70;99.70
21176;DHT22;10746;50.178;8.186;2022-08-02T14:21:49;31.20;99.80
21176;DHT22;10746;50.178;8.186;2022-08-02T14:24:17;31.50;99.90
21176;DHT22;10746;50.178;8.186;2022-08-02T14:26:45;30.70;99.40
21176;DHT22;10746;50.178;8.186;2022-08-02T14:29:13;30.20;99.90
21176;DHT22;10746;50.178;8.186;2022-08-02T14:31:40;31.00;99.90
21176;DHT22;10746;50.178;8.186;2022-08-02T14:34:06;31.40;99.70
21176;DHT22;10746;50.178;8.186;2022-08-02T14:36:34;30.20;99.90
21176;DHT22;10746;50.178;8.186;2022-08-02T14:39:03;29.40;99.90
21176;DHT22;10746;50.178;8.186;2022-08-02T14:41:30;29.20;99.90
21176;DHT22;10746;50.178;8.186;2022-08-02T14:43:58;29.90;99.90
21176;DHT22;10746;50.178;8.186;2022-08-02T14:46:32;30.00;99.90
21176;DHT22;10746;50.178;8.186;2022-08-02T14:48:59;29.90;99.90
21176;DHT22;10746;50.178;8.186;2022-08-02T14:51:28;30.40;99.90
21176;DHT22;10746;50.178;8.186;2022-08-02T14:53:55;30.20;99.90
21176;DHT22;10746;50.178;8.186;2022-08-02T14:56:23;29.70;99.40
21176;DHT22;10746;50.178;8.186;2022-08-02T14:58:50;29.20;99.90
21176;DHT22;10746;50.178;8.186;2022-08-02T15:01:17;29.30;99.90
21176;DHT22;10746;50.178;8.186;2022-08-02T15:03:44;29.60;99.90
21176;DHT22;10746;50.178;8.186;2022-08-02T15:06:10;30.10;99.80
21176;DHT22;10746;50.178;8.186;2022-08-02T15:08:37;29.70;99.90
21176;DHT22;10746;50.178;8.186;2022-08-02T15:11:04;29.60;99.90
21176;DHT22;10746;50.178;8.186;2022-08-02T15:13:32;29.30;99.90
21176;DHT22;10746;50.178;8.186;2022-08-02T15:15:59;29.70;99.90
21176;DHT22;10746;50.178;8.186;2022-08-02T15:18:26;29.50;99.90
21176;DHT22;10746;50.178;8.186;2022-08-02T15:20:53;29.20;99.90
21176;DHT22;10746;50.178;8.186;2022-08-02T15:23:22;28.90;99.90
21176;DHT22;10746;50.178;8.186;2022-08-02T15:25:50;28.70;99.90
21176;DHT22;10746;50.178;8.186;2022-08-02T15:28:17;28.50;99.90
21176;DHT22;10746;50.178;8.186;2022-08-02T15:30:45;28.00;99.90
21176;DHT22;10746;50.178;8.186;2022-08-02T15:33:11;27.80;99.90
21176;DHT22;10746;50.178;8.186;2022-08-02T15:35:38;27.70;99.90
21176;DHT22;10746;50.178;8.186;2022-08-02T15:38:05;28.00;99.90
21176;DHT22;10746;50.178;8.186;2022-08-02T15:40:32;28.20;99.90